sensor_id;sensor_type;location;lat;lon;timestamp;temperature;humidity
22108;DHT22;11220;48.812;9.128;2023-11-21T00:02:20;18.20;86.90
22108;DHT22;11220;48.812;9.128;2023-11-21T00:04:45;18.20;86.90
22108;DHT22;11220;48.812;9.128;2023-11-21T00:07:12;18.70;87.30
22108;DHT22;11220;48.812;9.128;2023-11-21T00:09:37;18.20;87.00
22108;DHT22;11220;48.812;9.128;2023-11-21T00:12:03;18.20;86.90
22108;DHT22;11220;48.812;9.128;2023-11-21T00:14:29;18.20;86.90
22108;DHT22;11220;48.812;9.128;2023-11-21T00:16:54;18.20;86.90
22108;DHT22;11220;48.812;9.128;2023-11-21T00:19:20;18.20;86.90
22108;DHT22;11220;48.812;9.128;2023-11-21T00:21:45;18.10;86.80
22108;DHT22;11220;48.812;9.128;2023-11-21T00:24:12;18.20;86.90
22108;DHT22;11220;48.812;9.128;2023-11-21T00:26:39;18.10;86.90
22108;DHT22;11220;48.812;9.128;2023-11-21T00:29:05;18.20;86.90
22108;DHT22;11220;48.812;9.128;2023-11-21T00:31:34;18.10;86.90
22108;DHT22;11220;48.812;9.128;2023-11-21T00:34:02;18.20;87.00
22108;DHT22;11220;48.812;9.128;2023-11-21T00:36:29;18.20;87.00
22108;DHT22;11220;48.812;9.128;2023-11-21T00:38:54;18.10;86.90
22108;DHT22;11220;48.812;9.128;2023-11-21T00:41:21;18.10;86.90
22108;DHT22;11220;48.812;9.128;2023-11-21T00:43:46;18.10;86.90
22108;DHT22;11220;48.812;9.128;2023-11-21T00:46:12;18.10;86.90
22108;DHT22;11220;48.812;9.128;2023-11-21T00:48:38;18.10;86.90
22108;DHT22;11220;48.812;9.128;2023-11-21T00:51:03;18.10;86.90
22108;DHT22;11220;48.812;9.128;2023-11-21T00:53:29;18.10;86.90
22108;DHT22;11220;48.812;9.128;2023-11-21T00:55:54;18.10;86.90
22108;DHT22;11220;48.812;9.128;2023-11-21T00:58:26;18.10;86.90
22108;DHT22;11220;48.812;9.128;2023-11-21T01:00:51;18.10;86.90
22108;DHT22;11220;48.812;9.128;2023-11-21T01:03:17;18.10;86.90
22108;DHT22;11220;48.812;9.128;2023-11-21T01:05:42;18.10;86.90
22108;DHT22;11220;48.812;9.128;2023-11-21T01:08:08;18.10;86.90
22108;DHT22;11220;48.812;9.128;2023-11-21T01:10:34;18.10;86.90
22108;DHT22;11220;48.812;9.128;2023-11-21T01:13:00;18.10;86.90
22108;DHT22;11220;48.812;9.128;2023-11-21T01:15:25;18.00;86.80
22108;DHT22;11220;48.812;9.128;2023-11-21T01:17:51;18.10;86.90
22108;DHT22;11220;48.812;9.128;2023-11-21T01:20:17;18.10;87.00
22108;DHT22;11220;48.812;9.128;2023-11-21T01:22:43;18.10;86.90
22108;DHT22;11220;48.812;9.128;2023-11-21T01:25:09;18.10;86.90
22108;DHT22;11220;48.812;9.128;2023-11-21T01:27:36;18.10;86.90
22108;DHT22;11220;48.812;9.128;2023-11-21T01:30:03;18.10;87.00
22108;DHT22;11220;48.812;9.128;2023-11-21T01:32:28;18.10;86.90
22108;DHT22;11220;48.812;9.128;2023-11-21T01:34:54;18.10;86.90
22108;DHT22;11220;48.812;9.128;2023-11-21T01:37:20;18.10;87.00
22108;DHT22;11220;48.812;9.128;2023-11-21T01:39:47;18.10;87.00
22108;DHT22;11220;48.812;9.128;2023-11-21T01:42:12;18.10;87.00
22108;DHT22;11220;48.812;9.128;2023-11-21T01:44:38;18.00;86.90
22108;DHT22;11220;48.812;9.128;2023-11-21T01:47:05;18.00;86.90
22108;DHT22;11220;48.812;9.128;2023-11-21T01:49:35;18.10;86.90
22108;DHT22;11220;48.812;9.128;2023-11-21T01:52:02;18.00;86.90
22108;DHT22;11220;48.812;9.128;2023-11-21T01:54:29;18.00;86.90
22108;DHT22;11220;48.812;9.128;2023-11-21T01:56:58;18.00;86.90
22108;DHT22;11220;48.812;9.128;2023-11-21T01:59:38;18.00;86.90
22108;DHT22;11220;48.812;9.128;2023-11-21T02:02:05;18.00;86.90
22108;DHT22;11220;48.812;9.128;2023-11-21T02:04:35;18.00;86.90
22108;DHT22;11220;48.812;9.128;2023-11-21T02:07:02;18.00;86.90
22108;DHT22;11220;48.812;9.128;2023-11-21T02:09:31;18.00;86.90
22108;DHT22;11220;48.812;9.128;2023-11-21T02:11:56;18.00;87.00
22108;DHT22;11220;48.812;9.128;2023-11-21T02:14:27;18.00;87.00
22108;DHT22;11220;48.812;9.128;2023-11-21T02:16:53;18.00;86.90
22108;DHT22;11220;48.812;9.128;2023-11-21T02:19:20;18.00;86.90
22108;DHT22;11220;48.812;9.128;2023-11-21T02:21:50;18.00;86.90
22108;DHT22;11220;48.812;9.128;2023-11-21T02:24:19;18.00;86.90
22108;DHT22;11220;48.812;9.128;2023-11-21T02:26:44;18.00;86.90
22108;DHT22;11220;48.812;9.128;2023-11-21T02:29:11;18.00;86.90
22108;DHT22;11220;48.812;9.128;2023-11-21T02:31:38;18.00;86.90
22108;DHT22;11220;48.812;9.128;2023-11-21T02:34:13;18.00;86.90
22108;DHT22;11220;48.812;9.128;2023-11-21T02:36:39;18.00;86.90
22108;DHT22;11220;48.812;9.128;2023-11-21T02:39:05;18.00;86.90
22108;DHT22;11220;48.812;9.128;2023-11-21T02:41:32;18.00;87.00
22108;DHT22;11220;48.812;9.128;2023-11-21T02:43:58;18.00;86.90
22108;DHT22;11220;48.812;9.128;2023-11-21T02:46:23;18.00;86.90
22108;DHT22;11220;48.812;9.128;2023-11-21T02:48:49;18.00;86.90
22108;DHT22;11220;48.812;9.128;2023-11-21T02:51:16;17.90;86.90
22108;DHT22;11220;48.812;9.128;2023-11-21T02:53:41;18.00;86.90
22108;DHT22;11220;48.812;9.128;2023-11-21T02:56:07;18.00;86.90
22108;DHT22;11220;48.812;9.128;2023-11-21T02:58:33;18.00;86.90
22108;DHT22;11220;48.812;9.128;2023-11-21T03:00:58;17.90;86.80
22108;DHT22;11220;48.812;9.128;2023-11-21T03:03:24;18.00;86.90
22108;DHT22;11220;48.812;9.128;2023-11-21T03:05:50;18.00;86.90
22108;DHT22;11220;48.812;9.128;2023-11-21T03:08:15;17.90;86.80
22108;DHT22;11220;48.812;9.128;2023-11-21T03:10:41;17.90;86.80
22108;DHT22;11220;48.812;9.128;2023-11-21T03:13:06;17.90;86.90
22108;DHT22;11220;48.812;9.128;2023-11-21T03:15:32;17.90;86.80
22108;DHT22;11220;48.812;9.128;2023-11-21T03:17:58;17.90;86.80
22108;DHT22;11220;48.812;9.128;2023-11-21T03:20:24;17.90;86.80
22108;DHT22;11220;48.812;9.128;2023-11-21T03:22:49;17.90;86.80
22108;DHT22;11220;48.812;9.128;2023-11-21T03:25:15;17.90;86.80
22108;DHT22;11220;48.812;9.128;2023-11-21T03:27:42;17.90;86.90
22108;DHT22;11220;48.812;9.128;2023-11-21T03:30:10;18.00;87.00
22108;DHT22;11220;48.812;9.128;2023-11-21T03:32:36;17.90;86.90
22108;DHT22;11220;48.812;9.128;2023-11-21T03:35:02;17.90;86.90
22108;DHT22;11220;48.812;9.128;2023-11-21T03:37:28;17.90;86.90
22108;DHT22;11220;48.812;9.128;2023-11-21T03:39:55;17.90;86.90
22108;DHT22;11220;48.812;9.128;2023-11-21T03:42:21;17.90;87.00
22108;DHT22;11220;48.812;9.128;2023-11-21T03:44:46;17.90;86.90
22108;DHT22;11220;48.812;9.128;2023-11-21T03:47:12;17.80;86.80
22108;DHT22;11220;48.812;9.128;2023-11-21T03:49:37;17.90;86.90
22108;DHT22;11220;48.812;9.128;2023-11-21T03:52:03;17.90;86.90
22108;DHT22;11220;48.812;9.128;2023-11-21T03:54:29;17.90;87.00
22108;DHT22;11220;48.812;9.128;2023-11-21T03:56:54;17.90;86.90
22108;DHT22;11220;48.812;9.128;2023-11-21T03:59:20;17.90;86.90
22108;DHT22;11220;48.812;9.128;2023-11-21T04:01:45;17.90;86.90
22108;DHT22;11220;48.812;9.128;2023-11-21T04:04:11;18.50;87.30
22108;DHT22;11220;48.812;9.128;2023-11-21T04:06:37;17.90;87.00
22108;DHT22;11220;48.812;9.128;2023-11-21T04:09:03;17.90;87.00
22108;DHT22;11220;48.812;9.128;2023-11-21T04:11:30;17.90;87.00
22108;DHT22;11220;48.812;9.128;2023-11-21T04:13:55;17.90;86.90
22108;DHT22;11220;48.812;9.128;2023-11-21T04:16:21;17.90;86.90
22108;DHT22;11220;48.812;9.128;2023-11-21T04:18:46;17.90;86.90
22108;DHT22;11220;48.812;9.128;2023-11-21T04:21:12;17.90;86.90
22108;DHT22;11220;48.812;9.128;2023-11-21T04:23:37;17.90;86.90
22108;DHT22;11220;48.812;9.128;2023-11-21T04:26:03;17.90;86.90
22108;DHT22;11220;48.812;9.128;2023-11-21T04:28:28;17.90;86.90
22108;DHT22;11220;48.812;9.128;2023-11-21T04:30:54;17.90;86.90
22108;DHT22;11220;48.812;9.128;2023-11-21T04:33:20;17.90;87.00
22108;DHT22;11220;48.812;9.128;2023-11-21T04:35:46;17.90;86.90
22108;DHT22;11220;48.812;9.128;2023-11-21T04:38:12;17.80;86.90
22108;DHT22;11220;48.812;9.128;2023-11-21T04:40:37;17.90;86.90
22108;DHT22;11220;48.812;9.128;2023-11-21T04:43:03;17.80;86.90
22108;DHT22;11220;48.812;9.128;2023-11-21T04:45:29;17.80;86.90
22108;DHT22;11220;48.812;9.128;2023-11-21T04:47:55;17.80;86.90
22108;DHT22;11220;48.812;9.128;2023-11-21T04:50:21;17.90;86.90
22108;DHT22;11220;48.812;9.128;2023-11-21T04:52:47;17.80;86.90
22108;DHT22;11220;48.812;9.128;2023-11-21T04:55:12;17.80;86.90
22108;DHT22;11220;48.812;9.128;2023-11-21T04:57:38;17.80;86.90
22108;DHT22;11220;48.812;9.128;2023-11-21T05:00:07;17.80;86.90
22108;DHT22;11220;48.812;9.128;2023-11-21T05:02:33;17.80;86.90
22108;DHT22;11220;48.812;9.128;2023-11-21T05:05:04;17.80;86.90
22108;DHT22;11220;48.812;9.128;2023-11-21T05:07:32;17.80;87.00
22108;DHT22;11220;48.812;9.128;2023-11-21T05:09:57;17.80;87.00
22108;DHT22;11220;48.812;9.128;2023-11-21T05:12:24;17.80;86.90
22108;DHT22;11220;48.812;9.128;2023-11-21T05:14:50;17.80;87.00
22108;DHT22;11220;48.812;9.128;2023-11-21T05:17:16;17.80;87.00
22108;DHT22;11220;48.812;9.128;2023-11-21T05:19:41;17.80;87.00
22108;DHT22;11220;48.812;9.128;2023-11-21T05:22:08;17.90;87.00
22108;DHT22;11220;48.812;9.128;2023-11-21T05:24:34;17.80;87.00
22108;DHT22;11220;48.812;9.128;2023-11-21T05:27:00;17.80;87.00
22108;DHT22;11220;48.812;9.128;2023-11-21T05:29:25;17.80;87.00
22108;DHT22;11220;48.812;9.128;2023-11-21T05:31:51;17.80;86.90
22108;DHT22;11220;48.812;9.128;2023-11-21T05:34:18;17.80;87.00
22108;DHT22;11220;48.812;9.128;2023-11-21T05:36:44;17.80;86.90
22108;DHT22;11220;48.812;9.128;2023-11-21T05:39:14;17.80;87.00
22108;DHT22;11220;48.812;9.128;2023-11-21T05:41:39;17.80;87.00
22108;DHT22;11220;48.812;9.128;2023-11-21T05:44:05;17.80;87.00
22108;DHT22;11220;48.812;9.128;2023-11-21T05:46:30;17.80;86.90
22108;DHT22;11220;48.812;9.128;2023-11-21T05:48:56;17.80;86.90
22108;DHT22;11220;48.812;9.128;2023-11-21T05:51:22;17.80;86.80
22108;DHT22;11220;48.812;9.128;2023-11-21T05:53:47;17.80;86.80
22108;DHT22;11220;48.812;9.128;2023-11-21T05:56:13;17.80;86.80
22108;DHT22;11220;48.812;9.128;2023-11-21T05:58:39;17.80;86.80
22108;DHT22;11220;48.812;9.128;2023-11-21T06:01:05;17.80;86.70
22108;DHT22;11220;48.812;9.128;2023-11-21T06:03:33;17.80;86.70
22108;DHT22;11220;48.812;9.128;2023-11-21T06:05:58;17.80;86.70
22108;DHT22;11220;48.812;9.128;2023-11-21T06:08:24;17.80;86.70
22108;DHT22;11220;48.812;9.128;2023-11-21T06:10:50;17.90;86.70
22108;DHT22;11220;48.812;9.128;2023-11-21T06:13:15;17.90;86.80
22108;DHT22;11220;48.812;9.128;2023-11-21T06:15:41;17.90;86.70
22108;DHT22;11220;48.812;9.128;2023-11-21T06:18:06;17.90;86.70
22108;DHT22;11220;48.812;9.128;2023-11-21T06:20:35;18.00;86.80
22108;DHT22;11220;48.812;9.128;2023-11-21T06:23:02;18.00;86.80
22108;DHT22;11220;48.812;9.128;2023-11-21T06:25:29;18.00;86.80
22108;DHT22;11220;48.812;9.128;2023-11-21T06:27:54;18.00;86.80
22108;DHT22;11220;48.812;9.128;2023-11-21T06:30:20;18.10;86.90
22108;DHT22;11220;48.812;9.128;2023-11-21T06:32:47;18.10;86.80
22108;DHT22;11220;48.812;9.128;2023-11-21T06:35:12;18.10;86.90
22108;DHT22;11220;48.812;9.128;2023-11-21T06:37:38;18.10;86.80
22108;DHT22;11220;48.812;9.128;2023-11-21T06:40:04;17.70;86.60
22108;DHT22;11220;48.812;9.128;2023-11-21T06:42:30;18.20;86.90
22108;DHT22;11220;48.812;9.128;2023-11-21T06:44:56;18.20;86.90
22108;DHT22;11220;48.812;9.128;2023-11-21T06:47:23;18.30;86.90
22108;DHT22;11220;48.812;9.128;2023-11-21T06:49:52;18.30;86.90
22108;DHT22;11220;48.812;9.128;2023-11-21T06:52:18;18.30;86.90
22108;DHT22;11220;48.812;9.128;2023-11-21T06:54:44;18.30;86.80
22108;DHT22;11220;48.812;9.128;2023-11-21T06:57:10;18.30;86.80
22108;DHT22;11220;48.812;9.128;2023-11-21T06:59:36;18.40;86.90
22108;DHT22;11220;48.812;9.128;2023-11-21T07:02:02;18.40;86.90
22108;DHT22;11220;48.812;9.128;2023-11-21T07:04:27;18.40;86.80
22108;DHT22;11220;48.812;9.128;2023-11-21T07:06:54;18.50;86.80
22108;DHT22;11220;48.812;9.128;2023-11-21T07:09:19;18.50;86.70
22108;DHT22;11220;48.812;9.128;2023-11-21T07:11:48;18.50;86.70
22108;DHT22;11220;48.812;9.128;2023-11-21T07:14:14;18.50;86.60
22108;DHT22;11220;48.812;9.128;2023-11-21T07:16:39;18.50;86.60
22108;DHT22;11220;48.812;9.128;2023-11-21T07:19:05;18.50;86.50
22108;DHT22;11220;48.812;9.128;2023-11-21T07:21:37;18.50;86.50
22108;DHT22;11220;48.812;9.128;2023-11-21T07:24:03;18.50;86.50
22108;DHT22;11220;48.812;9.128;2023-11-21T07:26:30;18.50;86.50
22108;DHT22;11220;48.812;9.128;2023-11-21T07:28:56;18.60;86.60
22108;DHT22;11220;48.812;9.128;2023-11-21T07:31:22;18.50;86.50
22108;DHT22;11220;48.812;9.128;2023-11-21T07:33:49;18.50;86.50
22108;DHT22;11220;48.812;9.128;2023-11-21T07:36:16;18.50;86.50
22108;DHT22;11220;48.812;9.128;2023-11-21T07:38:44;18.50;86.40
22108;DHT22;11220;48.812;9.128;2023-11-21T07:41:10;18.50;86.40
22108;DHT22;11220;48.812;9.128;2023-11-21T07:43:36;18.50;86.40
22108;DHT22;11220;48.812;9.128;2023-11-21T07:46:03;18.50;86.40
22108;DHT22;11220;48.812;9.128;2023-11-21T07:48:29;18.50;86.30
22108;DHT22;11220;48.812;9.128;2023-11-21T07:50:55;18.60;86.40
22108;DHT22;11220;48.812;9.128;2023-11-21T07:53:21;18.50;86.30
22108;DHT22;11220;48.812;9.128;2023-11-21T07:55:47;18.60;86.40
22108;DHT22;11220;48.812;9.128;2023-11-21T07:58:12;18.60;86.30
22108;DHT22;11220;48.812;9.128;2023-11-21T08:00:38;18.60;86.30
22108;DHT22;11220;48.812;9.128;2023-11-21T08:03:05;18.50;86.30
22108;DHT22;11220;48.812;9.128;2023-11-21T08:05:31;18.50;86.30
22108;DHT22;11220;48.812;9.128;2023-11-21T08:07:56;18.50;86.30
22108;DHT22;11220;48.812;9.128;2023-11-21T08:10:22;18.60;86.30
22108;DHT22;11220;48.812;9.128;2023-11-21T08:12:48;18.50;86.30
22108;DHT22;11220;48.812;9.128;2023-11-21T08:15:16;18.50;86.30
22108;DHT22;11220;48.812;9.128;2023-11-21T08:17:42;18.60;86.30
22108;DHT22;11220;48.812;9.128;2023-11-21T08:20:08;18.50;86.30
22108;DHT22;11220;48.812;9.128;2023-11-21T08:22:36;18.60;86.30
22108;DHT22;11220;48.812;9.128;2023-11-21T08:25:02;18.50;86.30
22108;DHT22;11220;48.812;9.128;2023-11-21T08:27:29;18.50;86.30
22108;DHT22;11220;48.812;9.128;2023-11-21T08:29:55;18.50;86.30
22108;DHT22;11220;48.812;9.128;2023-11-21T08:32:21;18.50;86.30
22108;DHT22;11220;48.812;9.128;2023-11-21T08:34:47;18.60;86.30
22108;DHT22;11220;48.812;9.128;2023-11-21T08:37:16;18.60;86.30
22108;DHT22;11220;48.812;9.128;2023-11-21T08:39:43;18.60;86.30
22108;DHT22;11220;48.812;9.128;2023-11-21T08:42:09;18.60;86.30
22108;DHT22;11220;48.812;9.128;2023-11-21T08:44:34;18.60;86.30
22108;DHT22;11220;48.812;9.128;2023-11-21T08:47:00;18.60;86.40
22108;DHT22;11220;48.812;9.128;2023-11-21T08:49:25;18.60;86.30
22108;DHT22;11220;48.812;9.128;2023-11-21T08:51:55;18.60;86.20
22108;DHT22;11220;48.812;9.128;2023-11-21T08:54:21;18.60;87.20
22108;DHT22;11220;48.812;9.128;2023-11-21T08:56:46;18.60;86.20
22108;DHT22;11220;48.812;9.128;2023-11-21T08:59:13;18.60;86.20
22108;DHT22;11220;48.812;9.128;2023-11-21T09:01:39;18.60;86.20
22108;DHT22;11220;48.812;9.128;2023-11-21T09:04:05;18.60;86.20
22108;DHT22;11220;48.812;9.128;2023-11-21T09:06:31;18.60;86.20
22108;DHT22;11220;48.812;9.128;2023-11-21T09:08:56;18.60;86.20
22108;DHT22;11220;48.812;9.128;2023-11-21T09:11:22;18.60;86.20
22108;DHT22;11220;48.812;9.128;2023-11-21T09:13:47;18.70;86.30
22108;DHT22;11220;48.812;9.128;2023-11-21T09:16:14;18.60;86.20
22108;DHT22;11220;48.812;9.128;2023-11-21T09:18:41;18.70;86.30
22108;DHT22;11220;48.812;9.128;2023-11-21T09:21:06;18.70;86.30
22108;DHT22;11220;48.812;9.128;2023-11-21T09:23:32;18.70;86.30
22108;DHT22;11220;48.812;9.128;2023-11-21T09:25:57;18.70;86.30
22108;DHT22;11220;48.812;9.128;2023-11-21T09:28:25;18.70;86.30
22108;DHT22;11220;48.812;9.128;2023-11-21T09:30:52;18.70;86.20
22108;DHT22;11220;48.812;9.128;2023-11-21T09:33:18;18.80;86.30
22108;DHT22;11220;48.812;9.128;2023-11-21T09:35:44;18.70;86.20
22108;DHT22;11220;48.812;9.128;2023-11-21T09:38:09;18.70;86.20
22108;DHT22;11220;48.812;9.128;2023-11-21T09:40:36;18.70;86.20
22108;DHT22;11220;48.812;9.128;2023-11-21T09:43:09;18.70;86.20
22108;DHT22;11220;48.812;9.128;2023-11-21T09:45:45;18.70;86.20
22108;DHT22;11220;48.812;9.128;2023-11-21T09:48:11;18.70;86.20
22108;DHT22;11220;48.812;9.128;2023-11-21T09:50:37;18.70;86.20
22108;DHT22;11220;48.812;9.128;2023-11-21T09:53:22;18.80;86.30
22108;DHT22;11220;48.812;9.128;2023-11-21T09:55:51;18.70;86.30
22108;DHT22;11220;48.812;9.128;2023-11-21T09:58:18;18.80;86.40
22108;DHT22;11220;48.812;9.128;2023-11-21T10:00:46;18.80;86.40
22108;DHT22;11220;48.812;9.128;2023-11-21T10:03:12;18.70;86.40
22108;DHT22;11220;48.812;9.128;2023-11-21T10:05:39;18.80;86.40
22108;DHT22;11220;48.812;9.128;2023-11-21T10:08:08;18.80;86.60
22108;DHT22;11220;48.812;9.128;2023-11-21T10:10:36;18.80;86.70
22108;DHT22;11220;48.812;9.128;2023-11-21T10:13:03;18.80;86.80
22108;DHT22;11220;48.812;9.128;2023-11-21T10:15:34;18.80;87.00
22108;DHT22;11220;48.812;9.128;2023-11-21T10:18:05;18.80;87.20
22108;DHT22;11220;48.812;9.128;2023-11-21T10:20:33;18.60;82.50
22108;DHT22;11220;48.812;9.128;2023-11-21T10:23:03;18.40;80.00
22108;DHT22;11220;48.812;9.128;2023-11-21T10:25:30;18.20;81.50
22108;DHT22;11220;48.812;9.128;2023-11-21T10:28:01;18.10;83.30
22108;DHT22;11220;48.812;9.128;2023-11-21T10:30:37;18.10;84.40
22108;DHT22;11220;48.812;9.128;2023-11-21T10:33:04;18.10;85.10
22108;DHT22;11220;48.812;9.128;2023-11-21T10:35:45;18.20;85.40
22108;DHT22;11220;48.812;9.128;2023-11-21T10:38:12;18.30;85.70
22108;DHT22;11220;48.812;9.128;2023-11-21T10:40:42;18.30;85.70
22108;DHT22;11220;48.812;9.128;2023-11-21T10:43:10;18.30;84.70
22108;DHT22;11220;48.812;9.128;2023-11-21T10:45:39;18.30;83.40
22108;DHT22;11220;48.812;9.128;2023-11-21T10:48:06;18.40;84.50
22108;DHT22;11220;48.812;9.128;2023-11-21T10:50:34;18.40;85.10
22108;DHT22;11220;48.812;9.128;2023-11-21T10:53:02;18.40;85.30
22108;DHT22;11220;48.812;9.128;2023-11-21T10:55:29;18.40;86.40
22108;DHT22;11220;48.812;9.128;2023-11-21T10:57:58;18.50;85.50
22108;DHT22;11220;48.812;9.128;2023-11-21T11:00:26;18.50;85.50
22108;DHT22;11220;48.812;9.128;2023-11-21T11:02:52;18.50;85.70
22108;DHT22;11220;48.812;9.128;2023-11-21T11:05:22;18.60;85.90
22108;DHT22;11220;48.812;9.128;2023-11-21T11:07:59;18.60;85.90
22108;DHT22;11220;48.812;9.128;2023-11-21T11:10:28;18.60;86.00
22108;DHT22;11220;48.812;9.128;2023-11-21T11:12:56;18.60;86.10
22108;DHT22;11220;48.812;9.128;2023-11-21T11:15:23;18.70;86.20
22108;DHT22;11220;48.812;9.128;2023-11-21T11:17:49;18.60;86.30
22108;DHT22;11220;48.812;9.128;2023-11-21T11:20:16;18.70;86.30
22108;DHT22;11220;48.812;9.128;2023-11-21T11:25:30;18.70;86.40
22108;DHT22;11220;48.812;9.128;2023-11-21T11:28:17;18.70;86.50
22108;DHT22;11220;48.812;9.128;2023-11-21T11:33:59;18.80;86.50
22108;DHT22;11220;48.812;9.128;2023-11-21T11:36:37;18.80;86.50
22108;DHT22;11220;48.812;9.128;2023-11-21T11:39:31;18.80;86.50
22108;DHT22;11220;48.812;9.128;2023-11-21T11:42:03;18.90;86.60
22108;DHT22;11220;48.812;9.128;2023-11-21T11:47:40;18.90;86.70
22108;DHT22;11220;48.812;9.128;2023-11-21T11:50:12;18.90;86.80
22108;DHT22;11220;48.812;9.128;2023-11-21T11:52:49;18.90;86.80
22108;DHT22;11220;48.812;9.128;2023-11-21T11:55:21;18.90;86.80
22108;DHT22;11220;48.812;9.128;2023-11-21T11:57:48;18.90;86.90
22108;DHT22;11220;48.812;9.128;2023-11-21T12:00:22;18.90;87.00
22108;DHT22;11220;48.812;9.128;2023-11-21T12:03:02;18.90;87.00
22108;DHT22;11220;48.812;9.128;2023-11-21T12:05:30;18.90;87.90
22108;DHT22;11220;48.812;9.128;2023-11-21T12:08:00;18.90;87.00
22108;DHT22;11220;48.812;9.128;2023-11-21T12:10:34;19.10;87.10
22108;DHT22;11220;48.812;9.128;2023-11-21T12:13:01;18.90;86.90
22108;DHT22;11220;48.812;9.128;2023-11-21T12:15:28;18.90;86.90
22108;DHT22;11220;48.812;9.128;2023-11-21T12:17:57;18.90;86.90
22108;DHT22;11220;48.812;9.128;2023-11-21T12:20:27;18.90;87.00
22108;DHT22;11220;48.812;9.128;2023-11-21T12:22:58;18.90;87.00
22108;DHT22;11220;48.812;9.128;2023-11-21T12:25:28;18.90;87.10
22108;DHT22;11220;48.812;9.128;2023-11-21T12:27:56;18.90;87.00
22108;DHT22;11220;48.812;9.128;2023-11-21T12:30:23;18.90;87.00
22108;DHT22;11220;48.812;9.128;2023-11-21T12:32:50;18.90;87.00
22108;DHT22;11220;48.812;9.128;2023-11-21T12:35:18;18.90;86.90
22108;DHT22;11220;48.812;9.128;2023-11-21T12:37:47;18.90;86.90
22108;DHT22;11220;48.812;9.128;2023-11-21T12:40:14;18.90;86.80
22108;DHT22;11220;48.812;9.128;2023-11-21T12:42:47;18.90;86.80
22108;DHT22;11220;48.812;9.128;2023-11-21T12:47:54;18.90;86.80
22108;DHT22;11220;48.812;9.128;2023-11-21T12:50:21;18.90;86.80
22108;DHT22;11220;48.812;9.128;2023-11-21T12:52:50;18.90;86.80
22108;DHT22;11220;48.812;9.128;2023-11-21T12:55:22;18.90;86.80
22108;DHT22;11220;48.812;9.128;2023-11-21T12:57:50;18.90;86.80
22108;DHT22;11220;48.812;9.128;2023-11-21T13:00:38;18.90;86.70
22108;DHT22;11220;48.812;9.128;2023-11-21T13:03:05;18.90;86.70
22108;DHT22;11220;48.812;9.128;2023-11-21T13:05:33;18.90;86.70
22108;DHT22;11220;48.812;9.128;2023-11-21T13:08:02;18.90;86.70
22108;DHT22;11220;48.812;9.128;2023-11-21T13:10:30;19.00;86.90
22108;DHT22;11220;48.812;9.128;2023-11-21T13:13:00;18.90;86.90
22108;DHT22;11220;48.812;9.128;2023-11-21T13:15:29;18.90;86.90
22108;DHT22;11220;48.812;9.128;2023-11-21T13:17:57;18.90;86.90
22108;DHT22;11220;48.812;9.128;2023-11-21T13:20:24;18.90;87.00
22108;DHT22;11220;48.812;9.128;2023-11-21T13:22:50;18.90;87.20
22108;DHT22;11220;48.812;9.128;2023-11-21T13:25:20;18.90;87.20
22108;DHT22;11220;48.812;9.128;2023-11-21T13:27:46;18.90;87.20
22108;DHT22;11220;48.812;9.128;2023-11-21T13:30:13;18.90;87.30
22108;DHT22;11220;48.812;9.128;2023-11-21T13:32:46;18.90;87.40
22108;DHT22;11220;48.812;9.128;2023-11-21T13:35:13;18.90;87.40
22108;DHT22;11220;48.812;9.128;2023-11-21T13:37:57;18.80;87.50
22108;DHT22;11220;48.812;9.128;2023-11-21T13:40:25;18.90;87.50
22108;DHT22;11220;48.812;9.128;2023-11-21T13:42:56;18.80;87.40
22108;DHT22;11220;48.812;9.128;2023-11-21T13:45:25;18.80;87.50
22108;DHT22;11220;48.812;9.128;2023-11-21T13:47:53;18.80;87.50
22108;DHT22;11220;48.812;9.128;2023-11-21T13:50:27;18.90;87.50
22108;DHT22;11220;48.812;9.128;2023-11-21T13:52:59;18.80;87.50
22108;DHT22;11220;48.812;9.128;2023-11-21T13:55:29;18.80;87.30
22108;DHT22;11220;48.812;9.128;2023-11-21T13:57:55;18.80;87.30
22108;DHT22;11220;48.812;9.128;2023-11-21T14:00:21;18.80;87.30
22108;DHT22;11220;48.812;9.128;2023-11-21T14:03:24;18.80;87.30
22108;DHT22;11220;48.812;9.128;2023-11-21T14:06:03;18.80;87.20
22108;DHT22;11220;48.812;9.128;2023-11-21T14:08:34;18.80;86.30
22108;DHT22;11220;48.812;9.128;2023-11-21T14:10:59;18.70;85.10
22108;DHT22;11220;48.812;9.128;2023-11-21T14:13:28;18.60;84.10
22108;DHT22;11220;48.812;9.128;2023-11-21T14:15:53;18.50;85.00
22108;DHT22;11220;48.812;9.128;2023-11-21T14:18:26;18.60;86.10
22108;DHT22;11220;48.812;9.128;2023-11-21T14:21:16;18.70;86.80
22108;DHT22;11220;48.812;9.128;2023-11-21T14:23:42;18.60;87.00
22108;DHT22;11220;48.812;9.128;2023-11-21T14:26:08;18.60;87.20
22108;DHT22;11220;48.812;9.128;2023-11-21T14:28:34;18.60;87.20
22108;DHT22;11220;48.812;9.128;2023-11-21T14:31:01;18.50;85.10
22108;DHT22;11220;48.812;9.128;2023-11-21T14:33:27;18.50;84.40
22108;DHT22;11220;48.812;9.128;2023-11-21T14:35:52;18.50;85.50
22108;DHT22;11220;48.812;9.128;2023-11-21T14:38:18;18.60;85.80
22108;DHT22;11220;48.812;9.128;2023-11-21T14:40:44;18.50;84.10
22108;DHT22;11220;48.812;9.128;2023-11-21T14:43:09;18.40;85.00
22108;DHT22;11220;48.812;9.128;2023-11-21T14:45:35;18.30;85.80
22108;DHT22;11220;48.812;9.128;2023-11-21T14:48:01;18.40;85.90
22108;DHT22;11220;48.812;9.128;2023-11-21T14:50:51;18.30;85.50
22108;DHT22;11220;48.812;9.128;2023-11-21T14:53:37;18.30;86.10
22108;DHT22;11220;48.812;9.128;2023-11-21T14:56:21;18.30;86.50
22108;DHT22;11220;48.812;9.128;2023-11-21T14:58:56;18.30;86.70
22108;DHT22;11220;48.812;9.128;2023-11-21T15:01:25;18.30;86.70
22108;DHT22;11220;48.812;9.128;2023-11-21T15:04:10;18.30;86.70
22108;DHT22;11220;48.812;9.128;2023-11-21T15:06:54;18.30;86.70
22108;DHT22;11220;48.812;9.128;2023-11-21T15:09:23;18.30;86.70
22108;DHT22;11220;48.812;9.128;2023-11-21T15:12:03;18.30;87.60
22108;DHT22;11220;48.812;9.128;2023-11-21T15:14:45;18.30;87.60
22108;DHT22;11220;48.812;9.128;2023-11-21T15:17:13;18.40;86.70
22108;DHT22;11220;48.812;9.128;2023-11-21T15:19:57;18.40;86.60
22108;DHT22;11220;48.812;9.128;2023-11-21T15:22:23;18.40;86.50
22108;DHT22;11220;48.812;9.128;2023-11-21T15:24:49;18.40;86.50
22108;DHT22;11220;48.812;9.128;2023-11-21T15:27:15;18.50;86.40
22108;DHT22;11220;48.812;9.128;2023-11-21T15:29:42;18.50;86.30
22108;DHT22;11220;48.812;9.128;2023-11-21T15:32:08;18.50;86.20
22108;DHT22;11220;48.812;9.128;2023-11-21T15:34:34;18.50;86.10
22108;DHT22;11220;48.812;9.128;2023-11-21T15:37:01;18.50;86.00
22108;DHT22;11220;48.812;9.128;2023-11-21T15:39:26;18.50;85.80
22108;DHT22;11220;48.812;9.128;2023-11-21T15:42:00;18.50;85.60
22108;DHT22;11220;48.812;9.128;2023-11-21T15:44:25;18.50;85.50
22108;DHT22;11220;48.812;9.128;2023-11-21T15:46:52;18.50;85.50